Terminal Aerodrome Forecast
Issued by NWS

Home | Current Version | Previous Version | Graphics & Text | Print | Product List | Glossary On
Versions: 1 2 3 4 5 6 7 8 9 10 11 12 13 14 15 16
000
FTUS43 KTOP 252324
TAFMHK
TAF
KMHK 252324Z 2600/2624 06009KT P6SM -SHRA VCTS SCT040CB BKN120
     FM260300 10005KT P6SM SCT060 BKN100
     FM260900 11005KT P6SM -SHRA VCTS BKN090CB
     FM261400 19008KT P6SM SCT060=

USA.gov is the U.S. government's official web portal to all federal, state and local government web resources and services.